createdAt,value
2022-10-12T00:01:15.658Z,17.42
2022-10-12T00:03:43.723Z,17.73
2022-10-12T00:06:20.051Z,16.15
2022-10-12T00:08:51.055Z,16.80
2022-10-12T00:11:24.382Z,16.58
2022-10-12T00:13:52.922Z,16.10
2022-10-12T00:16:23.236Z,15.50
2022-10-12T00:18:57.010Z,16.35
2022-10-12T00:21:26.915Z,16.40
2022-10-12T00:24:01.665Z,14.07
2022-10-12T00:26:30.440Z,15.75
2022-10-12T00:29:01.296Z,14.88
2022-10-12T00:31:30.188Z,14.50
2022-10-12T00:34:04.140Z,14.45
2022-10-12T00:36:35.957Z,15.85
2022-10-12T00:39:08.198Z,13.82
2022-10-12T00:41:42.878Z,18.20
2022-10-12T00:44:35.470Z,19.42
2022-10-12T00:47:23.811Z,13.40
2022-10-12T00:50:21.083Z,15.23
2022-10-12T00:53:14.539Z,15.43
2022-10-12T00:55:58.016Z,13.45
2022-10-12T00:58:26.702Z,14.50
2022-10-12T01:00:54.583Z,14.93
2022-10-12T01:03:23.495Z,14.80
2022-10-12T01:05:52.055Z,13.27
2022-10-12T01:08:29.226Z,14.02
2022-10-12T01:10:57.772Z,13.98
2022-10-12T01:14:03.128Z,13.10
2022-10-12T01:16:47.352Z,14.98
2022-10-12T01:19:45.938Z,14.98
2022-10-12T01:22:49.817Z,15.65
2022-10-12T01:26:30.708Z,14.30
2022-10-12T01:32:46.012Z,15.32
2022-10-12T01:36:06.006Z,14.98
2022-10-12T01:39:09.302Z,13.93
2022-10-12T01:44:11.024Z,10.38
2022-10-12T01:46:43.693Z,15.35
2022-10-12T01:49:14.563Z,13.02
2022-10-12T01:52:27.641Z,15.02
2022-10-12T01:55:35.547Z,12.60
2022-10-12T01:58:24.930Z,12.30
2022-10-12T02:01:29.612Z,11.40
2022-10-12T02:04:33.319Z,12.90
2022-10-12T02:07:17.388Z,12.05
2022-10-12T02:09:45.337Z,13.05
2022-10-12T02:12:19.616Z,11.90
2022-10-12T02:14:55.367Z,12.00
2022-10-12T02:17:24.097Z,10.98
2022-10-12T02:19:58.107Z,12.75
2022-10-12T02:22:34.515Z,11.63
2022-10-12T02:25:08.070Z,11.93
2022-10-12T02:27:40.423Z,11.85
2022-10-12T02:30:09.979Z,12.40
2022-10-12T02:32:58.524Z,12.35
2022-10-12T02:35:45.635Z,10.98
2022-10-12T02:38:33.167Z,13.18
2022-10-12T02:41:08.039Z,12.27
2022-10-12T02:43:49.019Z,11.75
2022-10-12T02:46:20.369Z,12.15
2022-10-12T02:48:50.799Z,12.77
2022-10-12T02:51:19.819Z,11.63
2022-10-12T02:53:48.315Z,13.38
2022-10-12T02:56:16.943Z,14.07
2022-10-12T02:58:47.353Z,12.18
2022-10-12T03:01:17.254Z,13.05
2022-10-12T03:03:46.281Z,12.70
2022-10-12T03:06:14.679Z,11.55
2022-10-12T03:08:42.605Z,11.70
2022-10-12T03:11:14.689Z,12.82
2022-10-12T03:13:42.520Z,12.98
2022-10-12T03:16:12.021Z,12.45
2022-10-12T03:18:41.017Z,11.85
2022-10-12T03:21:09.651Z,12.07
2022-10-12T03:23:38.644Z,12.13
2022-10-12T03:26:07.398Z,12.05
2022-10-12T03:28:35.746Z,14.07
2022-10-12T03:31:03.998Z,13.35
2022-10-12T03:33:31.932Z,13.30
2022-10-12T03:36:00.024Z,13.60
2022-10-12T03:38:28.480Z,12.75
2022-10-12T03:40:57.554Z,13.23
2022-10-12T03:43:25.808Z,14.40
2022-10-12T03:45:54.361Z,13.30
2022-10-12T03:48:22.479Z,12.57
2022-10-12T03:50:52.392Z,10.73
2022-10-12T03:53:20.866Z,11.27
2022-10-12T03:55:48.966Z,10.27
2022-10-12T03:58:16.880Z,11.68
2022-10-12T04:00:45.180Z,11.68
2022-10-12T04:03:13.302Z,12.07
2022-10-12T04:05:41.143Z,12.15
2022-10-12T04:08:12.015Z,12.80
2022-10-12T04:10:40.619Z,12.68
2022-10-12T04:13:08.478Z,11.80
2022-10-12T04:15:36.424Z,11.70
2022-10-12T04:18:04.648Z,13.60
2022-10-12T04:20:32.533Z,11.82
2022-10-12T04:23:00.714Z,12.70
2022-10-12T04:25:30.243Z,12.50
2022-10-12T04:27:58.513Z,11.23
2022-10-12T04:30:26.424Z,11.90
2022-10-12T04:32:54.556Z,12.95
2022-10-12T04:35:23.790Z,15.85
2022-10-12T04:37:53.880Z,18.05
2022-10-12T04:40:23.313Z,13.18
2022-10-12T04:42:51.140Z,11.57
2022-10-12T04:45:19.164Z,15.60
2022-10-12T04:47:47.055Z,14.45
2022-10-12T04:50:16.143Z,10.20
2022-10-12T04:52:44.195Z,11.80
2022-10-12T04:55:12.588Z,11.75
2022-10-12T04:57:41.150Z,10.82
2022-10-12T05:00:10.411Z,10.82
2022-10-12T05:02:38.615Z,10.43
2022-10-12T05:05:06.991Z,10.98
2022-10-12T05:07:35.065Z,10.40
2022-10-12T05:10:03.712Z,10.35
2022-10-12T05:12:31.503Z,10.38
2022-10-12T05:14:59.445Z,11.52
2022-10-12T05:17:27.487Z,9.73
2022-10-12T05:19:55.421Z,9.80
2022-10-12T05:22:23.374Z,11.80
2022-10-12T05:24:53.945Z,12.18
2022-10-12T05:27:22.212Z,13.23
2022-10-12T05:29:50.297Z,15.07
2022-10-12T05:32:19.130Z,16.05
2022-10-12T05:34:47.206Z,17.52
2022-10-12T05:37:15.171Z,14.63
2022-10-12T05:39:43.497Z,12.57
2022-10-12T05:42:12.692Z,11.95
2022-10-12T05:44:40.681Z,12.07
2022-10-12T05:47:09.003Z,10.85
2022-10-12T05:49:38.287Z,11.50
2022-10-12T05:52:06.299Z,11.13
2022-10-12T05:54:34.507Z,10.23
2022-10-12T05:57:03.165Z,11.10
2022-10-12T05:59:31.194Z,10.70
2022-10-12T06:01:59.231Z,10.73
2022-10-12T06:04:27.495Z,10.13
2022-10-12T06:06:55.681Z,9.77
2022-10-12T06:09:24.916Z,9.77
2022-10-12T06:11:52.760Z,10.20
2022-10-12T06:14:20.633Z,9.82
2022-10-12T06:16:52.332Z,10.75
2022-10-12T06:19:22.535Z,10.32
2022-10-12T06:21:50.646Z,10.40
2022-10-12T06:24:18.485Z,10.57
2022-10-12T06:26:46.293Z,10.27
2022-10-12T06:29:15.010Z,11.07
2022-10-12T06:31:45.521Z,10.00
2022-10-12T06:34:16.128Z,9.82
2022-10-12T06:36:44.067Z,10.18
2022-10-12T06:39:12.243Z,11.05
2022-10-12T06:41:41.163Z,10.25
2022-10-12T06:44:10.410Z,10.60
2022-10-12T06:46:38.268Z,9.25
2022-10-12T06:49:06.509Z,10.02
2022-10-12T06:51:34.389Z,9.35
2022-10-12T06:54:02.537Z,8.18
2022-10-12T06:56:31.666Z,9.63
2022-10-12T09:40:07.615Z,4.82
2022-10-12T09:42:36.500Z,5.10
2022-10-12T09:45:19.955Z,5.47
2022-10-12T09:48:18.184Z,5.47
2022-10-12T09:51:02.143Z,5.47
2022-10-12T09:53:35.458Z,4.90
2022-10-12T09:56:30.564Z,5.45
2022-10-12T09:59:04.927Z,5.35
2022-10-12T10:01:36.545Z,4.25
2022-10-12T10:06:51.387Z,6.10
2022-10-12T10:09:35.672Z,3.80
2022-10-12T10:12:24.318Z,3.67
2022-10-12T10:14:56.829Z,3.83
2022-10-12T10:17:29.207Z,5.45
2022-10-12T10:19:59.255Z,5.60
2022-10-12T10:22:29.484Z,6.28
2022-10-12T10:25:00.938Z,7.25
2022-10-12T10:30:32.144Z,4.57
2022-10-12T10:33:36.355Z,4.93
2022-10-12T10:36:26.861Z,6.88
2022-10-12T10:39:05.432Z,5.35
2022-10-12T10:41:40.766Z,5.05
2022-10-12T10:44:36.334Z,3.03
2022-10-12T10:47:12.427Z,1.50
2022-10-12T10:49:49.426Z,2.08
2022-10-12T10:52:37.580Z,3.33
2022-10-12T10:55:22.227Z,3.53
2022-10-12T10:58:06.244Z,4.88
2022-10-12T11:00:42.986Z,3.60
2022-10-12T11:03:26.245Z,2.80
2022-10-12T11:06:38.590Z,8.35
2022-10-12T11:09:32.625Z,8.65
2022-10-12T11:12:15.069Z,3.35
2022-10-12T11:14:55.635Z,2.78
2022-10-12T11:17:33.336Z,3.45
2022-10-12T11:20:41.821Z,4.50
2022-10-12T11:23:52.031Z,2.50
2022-10-12T11:26:41.339Z,2.55
2022-10-12T11:29:15.151Z,3.38
2022-10-12T11:32:22.586Z,2.55
2022-10-12T11:35:01.884Z,2.40
2022-10-12T11:37:53.189Z,2.15
2022-10-12T11:43:55.794Z,2.83
2022-10-12T11:46:53.724Z,2.83
2022-10-12T11:50:03.446Z,2.75
2022-10-12T11:52:54.214Z,2.30
2022-10-12T11:55:56.454Z,2.70
2022-10-12T11:58:48.641Z,3.00
2022-10-12T12:02:01.804Z,2.22
2022-10-12T12:04:42.174Z,2.90
2022-10-12T12:07:41.794Z,2.00
2022-10-12T12:10:28.152Z,1.88
2022-10-12T12:13:15.078Z,2.17
2022-10-12T12:15:52.759Z,2.13
2022-10-12T12:18:24.847Z,1.95
2022-10-12T12:21:08.180Z,2.55
2022-10-12T12:23:53.827Z,3.17
2022-10-12T12:29:17.840Z,2.08
2022-10-12T12:31:59.298Z,2.13
2022-10-12T12:34:28.669Z,2.53
2022-10-12T12:36:58.587Z,2.17
2022-10-12T12:39:32.039Z,2.35
2022-10-12T12:42:07.346Z,2.92
2022-10-12T12:44:37.049Z,2.47
2022-10-12T12:47:26.124Z,2.13
2022-10-12T12:50:01.457Z,2.33
2022-10-12T12:52:38.810Z,2.55
2022-10-12T12:55:34.827Z,2.88
2022-10-12T12:58:05.422Z,2.90
2022-10-12T13:00:51.821Z,5.43
2022-10-12T13:03:56.078Z,3.53
2022-10-12T13:06:30.602Z,3.05
2022-10-12T13:09:53.311Z,3.08
2022-10-12T13:12:46.313Z,2.40
2022-10-12T13:15:41.971Z,2.92
2022-10-12T13:19:26.175Z,2.40
2022-10-12T13:21:56.707Z,2.70
2022-10-12T13:24:34.900Z,2.92
2022-10-12T13:27:23.250Z,2.45
2022-10-12T13:30:04.776Z,2.45
2022-10-12T13:32:44.956Z,2.55
2022-10-12T13:35:23.150Z,2.60
2022-10-12T13:38:16.673Z,2.85
2022-10-12T13:40:53.544Z,2.20
2022-10-12T13:43:45.053Z,3.00
2022-10-12T13:46:51.776Z,3.60
2022-10-12T13:49:34.409Z,4.97
2022-10-12T13:52:31.808Z,5.07
2022-10-12T13:55:01.656Z,5.13
2022-10-12T13:57:46.494Z,4.22
2022-10-12T14:00:14.626Z,2.75
2022-10-12T14:03:06.658Z,2.47
2022-10-12T14:05:46.184Z,2.22
2022-10-12T14:08:21.686Z,2.22
2022-10-12T14:10:49.751Z,2.15
2022-10-12T14:13:34.481Z,2.80
2022-10-12T14:16:06.332Z,2.70
2022-10-12T14:18:42.119Z,5.43
2022-10-12T14:21:25.638Z,5.90
2022-10-12T14:24:09.790Z,5.57
2022-10-12T14:26:45.015Z,5.10
2022-10-12T14:29:29.401Z,5.57
2022-10-12T14:32:01.608Z,7.22
2022-10-12T14:34:35.497Z,6.28
2022-10-12T14:37:28.078Z,8.02
2022-10-12T14:40:00.714Z,8.18
2022-10-12T14:42:36.500Z,10.43
2022-10-12T14:45:24.283Z,10.68
2022-10-12T14:47:53.076Z,10.48
2022-10-12T14:50:22.443Z,9.63
2022-10-12T14:52:55.208Z,9.32
2022-10-12T14:55:27.506Z,8.50
2022-10-12T14:57:55.844Z,8.00
2022-10-12T15:00:33.281Z,8.82
2022-10-12T15:03:02.367Z,8.75
2022-10-12T15:05:33.235Z,7.97
2022-10-12T15:08:07.730Z,8.43
2022-10-12T15:10:37.208Z,9.32
2022-10-12T15:13:05.408Z,8.77
2022-10-12T15:15:53.397Z,8.40
2022-10-12T15:18:21.587Z,8.98
2022-10-12T15:20:49.960Z,9.80
2022-10-12T15:23:18.539Z,9.18
2022-10-12T15:25:55.987Z,10.52
2022-10-12T15:28:24.468Z,11.07
2022-10-12T15:33:44.414Z,11.65
2022-10-12T15:36:13.976Z,10.38
2022-10-12T15:38:41.841Z,10.70
2022-10-12T15:41:18.950Z,9.48
2022-10-12T15:43:47.069Z,10.43
2022-10-12T15:46:15.414Z,9.27
2022-10-12T15:48:51.300Z,9.57
2022-10-12T15:51:25.227Z,9.68
2022-10-12T15:53:55.340Z,9.77
2022-10-12T15:56:23.413Z,10.63
2022-10-12T15:58:51.542Z,10.98
2022-10-12T16:01:20.834Z,11.75
2022-10-12T16:03:49.827Z,11.55
2022-10-12T16:06:17.853Z,23.75
2022-10-12T16:08:45.827Z,20.20
2022-10-12T16:11:16.619Z,16.10
2022-10-12T16:13:54.051Z,20.97
2022-10-12T16:16:24.677Z,14.73
2022-10-12T16:18:54.321Z,26.40
2022-10-12T16:21:22.372Z,22.95
2022-10-12T16:23:50.600Z,26.27
2022-10-12T16:26:18.687Z,35.67
2022-10-12T16:28:47.072Z,31.48
2022-10-12T16:31:18.067Z,33.35
2022-10-12T16:33:46.261Z,25.13
2022-10-12T16:36:16.833Z,20.00
2022-10-12T16:38:45.278Z,17.75
2022-10-12T16:41:16.908Z,16.80
2022-10-12T16:43:45.113Z,15.60
2022-10-12T16:46:13.734Z,16.17
2022-10-12T16:48:41.809Z,26.05
2022-10-12T16:51:12.404Z,22.52
2022-10-12T16:53:42.632Z,21.90
2022-10-12T16:56:11.238Z,22.30
2022-10-12T16:58:39.125Z,24.13
2022-10-12T17:01:15.257Z,27.25
2022-10-12T17:03:43.468Z,30.65
2022-10-12T17:06:11.676Z,19.42
2022-10-12T17:08:39.985Z,20.23
2022-10-12T17:11:17.023Z,21.73
2022-10-12T17:13:49.013Z,25.45
2022-10-12T17:16:37.152Z,21.73
2022-10-12T17:19:05.791Z,22.23
2022-10-12T17:21:36.556Z,21.70
2022-10-12T17:24:05.747Z,21.60
2022-10-12T17:26:38.600Z,20.48
2022-10-12T17:29:13.274Z,22.45
2022-10-12T17:31:42.792Z,20.13
2022-10-12T17:34:30.672Z,18.45
2022-10-12T17:37:02.025Z,18.80
2022-10-12T17:39:34.624Z,16.90
2022-10-12T17:42:02.789Z,16.48
2022-10-12T17:44:30.913Z,16.95
2022-10-12T17:46:59.461Z,51.38
2022-10-12T17:49:28.495Z,50.30
2022-10-12T17:51:57.093Z,44.58
2022-10-12T17:54:26.689Z,27.30
2022-10-12T17:56:56.194Z,31.20
2022-10-12T17:59:25.314Z,32.72
2022-10-12T18:01:54.345Z,36.58
2022-10-12T18:04:22.651Z,34.20
2022-10-12T18:06:50.747Z,36.72
2022-10-12T18:09:18.819Z,40.00
2022-10-12T18:11:47.175Z,42.22
2022-10-12T18:14:16.137Z,41.97
2022-10-12T18:16:44.497Z,94.97
2022-10-12T18:19:13.680Z,85.03
2022-10-12T18:21:41.752Z,84.70
2022-10-12T18:24:16.635Z,62.47
2022-10-12T18:26:47.555Z,67.60
2022-10-12T18:29:19.007Z,61.20
2022-10-12T18:31:47.304Z,56.58
2022-10-12T18:34:15.700Z,57.03
2022-10-12T18:36:44.172Z,50.65
2022-10-12T18:39:12.654Z,55.20
2022-10-12T18:41:40.740Z,99.72
2022-10-12T18:44:11.270Z,65.05
2022-10-12T18:46:39.685Z,66.45
2022-10-12T18:49:10.387Z,50.72
2022-10-12T18:51:43.404Z,47.95
2022-10-12T18:54:14.104Z,46.72
2022-10-12T18:56:43.342Z,44.95
2022-10-12T18:59:12.631Z,45.28
2022-10-12T19:01:40.803Z,49.25
2022-10-12T19:04:08.800Z,55.30
2022-10-12T19:06:42.391Z,63.20
2022-10-12T19:09:14.092Z,66.00
2022-10-12T19:14:14.914Z,106.45
2022-10-12T19:16:45.384Z,51.05
2022-10-12T19:19:20.799Z,49.17
2022-10-12T19:21:51.247Z,53.80
2022-10-12T19:24:21.639Z,54.60
2022-10-12T19:26:49.763Z,58.90
2022-10-12T19:29:17.991Z,55.08
2022-10-12T19:31:50.039Z,63.50
2022-10-12T19:34:21.264Z,63.15
2022-10-12T19:36:50.776Z,65.88
2022-10-12T19:39:22.737Z,69.20
2022-10-12T19:41:52.168Z,67.47
2022-10-12T19:44:20.789Z,56.03
2022-10-12T19:46:49.500Z,51.70
2022-10-12T19:49:20.816Z,51.65
2022-10-12T19:51:48.863Z,43.45
2022-10-12T19:54:17.132Z,43.35
2022-10-12T19:56:46.107Z,46.70
2022-10-12T19:59:16.647Z,44.15
2022-10-12T20:01:50.224Z,49.13
2022-10-12T20:04:19.773Z,44.97
2022-10-12T20:06:48.542Z,49.00
2022-10-12T20:09:22.461Z,57.00
2022-10-12T20:11:50.350Z,42.67
2022-10-12T20:14:18.409Z,36.58
2022-10-12T20:16:50.557Z,35.28
2022-10-12T20:19:18.641Z,38.20
2022-10-12T20:21:47.013Z,36.60
2022-10-12T20:24:15.904Z,40.20
2022-10-12T20:26:44.047Z,36.15
2022-10-12T20:29:12.149Z,34.25
2022-10-12T20:31:43.583Z,32.63
2022-10-12T20:34:12.437Z,31.63
2022-10-12T20:36:40.397Z,32.40
2022-10-12T20:39:08.538Z,34.72
2022-10-12T20:41:36.471Z,35.33
2022-10-12T20:44:04.477Z,39.05
2022-10-12T20:46:33.632Z,39.63
2022-10-12T20:49:03.229Z,37.35
2022-10-12T20:51:44.706Z,38.45
2022-10-12T20:54:16.041Z,36.08
2022-10-12T20:56:44.742Z,34.97
2022-10-12T20:59:12.896Z,34.33
2022-10-12T21:01:46.999Z,31.20
2022-10-12T21:04:19.586Z,33.50
2022-10-12T21:06:48.529Z,33.65
2022-10-12T21:09:16.867Z,31.73
2022-10-12T21:11:44.820Z,34.70
2022-10-12T21:14:13.746Z,30.42
2022-10-12T21:16:42.319Z,32.72
2022-10-12T21:19:17.206Z,32.50
2022-10-12T21:21:48.993Z,32.33
2022-10-12T21:24:17.097Z,37.00
2022-10-12T21:26:45.731Z,35.70
2022-10-12T21:29:14.775Z,36.60
2022-10-12T21:31:42.768Z,37.75
2022-10-12T21:34:11.301Z,38.90
2022-10-12T21:36:39.564Z,36.30
2022-10-12T21:39:15.265Z,32.70
2022-10-12T21:41:43.883Z,34.90
2022-10-12T21:44:12.429Z,35.95
2022-10-12T21:46:41.033Z,35.92
2022-10-12T21:49:10.848Z,33.85
2022-10-12T21:51:38.855Z,36.38
2022-10-12T21:54:08.212Z,35.75
2022-10-12T21:56:37.674Z,36.42
2022-10-12T21:59:07.085Z,34.95
2022-10-12T22:01:41.725Z,34.67
2022-10-12T22:04:15.549Z,35.38
2022-10-12T22:06:43.890Z,34.55
2022-10-12T22:09:19.207Z,35.13
2022-10-12T22:11:47.749Z,33.38
2022-10-12T22:14:18.816Z,31.45
2022-10-12T22:16:47.239Z,31.48
2022-10-12T22:19:19.166Z,30.92
2022-10-12T22:21:51.315Z,33.13
2022-10-12T22:24:21.689Z,33.65
2022-10-12T22:26:53.037Z,34.22
2022-10-12T22:29:20.994Z,31.90
2022-10-12T22:31:49.386Z,32.22
2022-10-12T22:34:17.714Z,30.52
2022-10-12T22:36:45.795Z,29.58
2022-10-12T22:39:14.054Z,29.08
2022-10-12T22:41:45.520Z,27.63
2022-10-12T22:44:13.736Z,29.88
2022-10-12T22:46:41.913Z,28.08
2022-10-12T22:49:10.810Z,26.85
2022-10-12T22:51:39.546Z,28.83
2022-10-12T22:54:09.649Z,27.88
2022-10-12T22:56:42.625Z,29.80
2022-10-12T22:59:15.809Z,26.45
2022-10-12T23:01:44.604Z,28.52
2022-10-12T23:04:12.771Z,28.55
2022-10-12T23:06:41.002Z,30.60
2022-10-12T23:09:09.042Z,30.90
2022-10-12T23:11:37.101Z,28.17
2022-10-12T23:14:05.224Z,27.52
2022-10-12T23:16:33.939Z,26.15
2022-10-12T23:19:05.532Z,27.98
2022-10-12T23:21:35.043Z,25.67
2022-10-12T23:24:05.229Z,28.70
2022-10-12T23:26:33.943Z,28.90
2022-10-12T23:29:02.539Z,28.92
2022-10-12T23:31:31.113Z,30.70
2022-10-12T23:34:06.210Z,28.90
2022-10-12T23:36:34.643Z,27.90
2022-10-12T23:39:05.518Z,26.55
2022-10-12T23:41:34.210Z,26.67
2022-10-12T23:44:02.596Z,27.27
2022-10-12T23:46:30.733Z,30.00
2022-10-12T23:48:59.854Z,27.75
2022-10-12T23:51:27.931Z,25.75
2022-10-12T23:53:55.903Z,23.48
2022-10-12T23:56:23.960Z,25.13
2022-10-12T23:58:52.378Z,26.38
